Time;durP1;ratioP1;P1;durP2;ratioP2;P2;SDS_P1;SDS_P2;PMS_P1;PMS_P2;Temp;Humidity;BMP_temperature;BMP_pressure;BME280_temperature;BME280_humidity;BME280_pressure;Samples;Min_cycle;Max_cycle;Signal;HPM_P1;HPM_P2
2023/09/28 00:01:21;;;;;;;569.97;515.30;;;;;;;;;;4921370;29;20500;-72
2023/09/28 00:03:49;;;;;;;547.80;494.25;;;;;;;;;;4925273;29;20446;-73
2023/09/28 00:06:16;;;;;;;536.38;482.45;;;;;;;;;;4924232;29;20914;-72
2023/09/28 00:08:43;;;;;;;536.88;480.33;;;;;;;;;;4931245;29;20498;-72
2023/09/28 00:11:10;;;;;;;527.87;469.87;;;;;;;;;;4929141;29;20443;-71
2023/09/28 00:13:40;;;;;;;636.17;470.00;;;;;;;;;;4925326;29;20480;-71
2023/09/28 00:16:10;;;;;;;517.13;464.10;;;;;;;;;;4926739;29;20522;-72
2023/09/28 00:18:40;;;;;;;476.17;435.40;;;;;;;;;;4928615;29;20447;-73
2023/09/28 00:21:07;;;;;;;515.75;463.17;;;;;;;;;;4923519;29;20443;-72
2023/09/28 00:23:34;;;;;;;657.20;471.38;;;;;;;;;;4918960;29;20899;-73
2023/09/28 00:26:02;;;;;;;573.67;478.33;;;;;;;;;;4922720;29;20487;-73
2023/09/28 00:28:29;;;;;;;545.92;490.20;;;;;;;;;;4930964;29;20449;-72
2023/09/28 00:31:01;;;;;;;547.55;487.55;;;;;;;;;;4930528;29;20447;-72
2023/09/28 00:33:28;;;;;;;540.00;482.17;;;;;;;;;;4916923;29;20448;-72
2023/09/28 00:35:59;;;;;;;678.00;463.52;;;;;;;;;;4918381;29;20439;-72
2023/09/28 00:38:26;;;;;;;530.28;473.73;;;;;;;;;;4924223;29;20496;-72
2023/09/28 00:40:53;;;;;;;535.80;479.40;;;;;;;;;;4917465;29;20490;-72
2023/09/28 00:43:38;;;;;;;546.60;491.42;;;;;;;;;;4929743;29;20542;-71
2023/09/28 00:46:08;;;;;;;544.05;482.63;;;;;;;;;;4920788;29;20453;-73
2023/09/28 00:48:41;;;;;;;685.65;475.15;;;;;;;;;;4917261;29;20501;-72
2023/09/28 00:51:08;;;;;;;572.40;468.05;;;;;;;;;;4923710;29;20546;-73
2023/09/28 00:53:35;;;;;;;505.95;454.00;;;;;;;;;;4928038;29;20918;-72
2023/09/28 00:56:03;;;;;;;498.17;444.50;;;;;;;;;;4920847;29;20528;-72
2023/09/28 00:58:30;;;;;;;491.95;441.48;;;;;;;;;;4924259;29;20436;-72
2023/09/28 01:01:00;;;;;;;518.80;450.55;;;;;;;;;;4926301;29;20441;-72
2023/09/28 01:03:27;;;;;;;655.15;475.10;;;;;;;;;;4926136;29;20463;-72
2023/09/28 01:05:58;;;;;;;716.63;447.20;;;;;;;;;;4924601;29;20834;-72
2023/09/28 01:08:25;;;;;;;612.97;485.35;;;;;;;;;;4915867;29;20524;-72
2023/09/28 01:10:52;;;;;;;677.67;484.27;;;;;;;;;;4930033;29;20443;-72
2023/09/28 01:13:24;;;;;;;604.85;499.05;;;;;;;;;;4921326;29;20496;-72
2023/09/28 01:15:51;;;;;;;581.42;499.30;;;;;;;;;;4923598;29;20449;-72
2023/09/28 01:18:19;;;;;;;576.92;518.10;;;;;;;;;;4912228;29;20495;-72
2023/09/28 01:20:48;;;;;;;599.13;533.93;;;;;;;;;;4923694;29;20498;-72
2023/09/28 01:23:18;;;;;;;394.08;360.92;;;;;;;;;;4920134;29;20448;-73
2023/09/28 01:25:47;;;;;;;614.78;556.10;;;;;;;;;;4924529;29;20526;-72
2023/09/28 01:28:16;;;;;;;593.72;539.10;;;;;;;;;;4922666;29;20949;-72
2023/09/28 01:30:45;;;;;;;623.97;564.55;;;;;;;;;;4923799;29;20504;-72
2023/09/28 01:33:13;;;;;;;577.97;529.47;;;;;;;;;;4923388;29;20510;-72
2023/09/28 01:35:41;;;;;;;594.50;543.53;;;;;;;;;;4918642;29;20443;-72
2023/09/28 01:38:11;;;;;;;656.58;593.47;;;;;;;;;;4925279;29;20447;-72
2023/09/28 01:40:38;;;;;;;637.27;576.83;;;;;;;;;;4924090;29;20438;-72
2023/09/28 01:43:06;;;;;;;659.92;596.35;;;;;;;;;;4920024;29;20469;-72
2023/09/28 01:45:38;;;;;;;666.43;602.87;;;;;;;;;;4926993;29;20439;-72
2023/09/28 01:48:06;;;;;;;678.83;612.03;;;;;;;;;;4927748;29;20475;-72
2023/09/28 01:50:34;;;;;;;679.70;614.65;;;;;;;;;;4921081;29;20502;-72
2023/09/28 01:53:02;;;;;;;644.83;585.47;;;;;;;;;;4919333;29;20449;-73
2023/09/28 01:55:31;;;;;;;647.90;587.43;;;;;;;;;;4920071;29;20458;-72
2023/09/28 01:57:59;;;;;;;654.35;593.10;;;;;;;;;;4922645;29;20920;-72
2023/09/28 02:00:30;;;;;;;656.70;594.78;;;;;;;;;;4904666;29;20441;-73
2023/09/28 02:02:58;;;;;;;648.22;587.90;;;;;;;;;;4919479;29;20936;-72
2023/09/28 02:05:29;;;;;;;607.83;557.40;;;;;;;;;;4919517;29;20562;-72
2023/09/28 02:07:56;;;;;;;647.53;589.60;;;;;;;;;;4922213;29;20498;-72
2023/09/28 02:10:23;;;;;;;677.13;610.70;;;;;;;;;;4922359;29;20478;-72
2023/09/28 02:12:51;;;;;;;680.53;612.92;;;;;;;;;;4923984;29;20448;-72
2023/09/28 02:15:18;;;;;;;679.70;612.83;;;;;;;;;;4918614;29;20446;-72
2023/09/28 02:17:46;;;;;;;679.10;611.63;;;;;;;;;;4925233;29;20435;-72
2023/09/28 02:20:22;;;;;;;674.33;608.13;;;;;;;;;;4919851;29;20774;-72
2023/09/28 02:22:52;;;;;;;667.37;599.30;;;;;;;;;;4922832;29;20987;-72
2023/09/28 02:25:22;;;;;;;663.08;593.58;;;;;;;;;;4918673;29;20473;-73
2023/09/28 02:27:51;;;;;;;643.28;575.63;;;;;;;;;;4919657;29;20445;-72
2023/09/28 02:30:22;;;;;;;646.20;575.83;;;;;;;;;;4929084;29;20467;-73
2023/09/28 02:32:51;;;;;;;636.22;568.28;;;;;;;;;;4920869;29;20490;-72
2023/09/28 02:35:19;;;;;;;645.17;565.30;;;;;;;;;;4918289;29;20475;-72
2023/09/28 02:37:48;;;;;;;666.83;563.92;;;;;;;;;;4912498;29;20441;-72
2023/09/28 02:40:17;;;;;;;651.72;581.25;;;;;;;;;;4925231;29;20435;-70
2023/09/28 02:42:47;;;;;;;647.53;576.08;;;;;;;;;;4918275;29;20437;-73
2023/09/28 02:45:14;;;;;;;637.13;567.28;;;;;;;;;;4918806;29;20920;-73
2023/09/28 02:47:43;;;;;;;680.30;535.70;;;;;;;;;;4926590;29;20514;-73
2023/09/28 02:50:11;;;;;;;664.03;594.93;;;;;;;;;;4927871;29;20972;-73
2023/09/28 02:52:39;;;;;;;666.20;596.42;;;;;;;;;;4925477;29;20526;-71
2023/09/28 02:55:07;;;;;;;669.13;600.67;;;;;;;;;;4926139;29;20435;-72
2023/09/28 02:57:35;;;;;;;671.30;603.42;;;;;;;;;;4911627;29;20812;-71
2023/09/28 03:00:15;;;;;;;681.97;613.00;;;;;;;;;;4921798;29;20522;-71
2023/09/28 03:02:45;;;;;;;687.33;617.88;;;;;;;;;;4927574;29;20439;-71
2023/09/28 03:05:12;;;;;;;690.50;620.40;;;;;;;;;;4901723;29;20433;-71
2023/09/28 03:07:39;;;;;;;688.65;618.88;;;;;;;;;;4925961;29;20466;-71
2023/09/28 03:10:10;;;;;;;650.65;589.25;;;;;;;;;;4925998;29;20491;-71
2023/09/28 03:12:37;;;;;;;673.70;609.05;;;;;;;;;;4918446;29;20437;-71
2023/09/28 03:15:10;;;;;;;701.47;628.00;;;;;;;;;;4928942;29;20451;-70
2023/09/28 03:17:37;;;;;;;697.08;624.50;;;;;;;;;;4920258;29;20444;-71
2023/09/28 03:20:14;;;;;;;712.17;637.00;;;;;;;;;;4918989;29;20477;-71
2023/09/28 03:22:46;;;;;;;713.47;638.70;;;;;;;;;;4917003;29;20511;-71
2023/09/28 03:25:17;;;;;;;709.65;635.20;;;;;;;;;;4923333;29;20500;-71
2023/09/28 03:27:47;;;;;;;709.08;634.67;;;;;;;;;;4921268;29;20989;-71
2023/09/28 03:30:15;;;;;;;715.08;640.40;;;;;;;;;;4928127;29;20454;-71
2023/09/28 03:32:42;;;;;;;717.55;641.95;;;;;;;;;;4927344;29;20489;-71
2023/09/28 03:35:10;;;;;;;708.83;634.43;;;;;;;;;;4917751;29;20523;-71
2023/09/28 03:37:40;;;;;;;718.47;642.47;;;;;;;;;;4921061;29;20547;-71
2023/09/28 03:40:11;;;;;;;714.70;637.83;;;;;;;;;;4908311;29;20451;-71
2023/09/28 03:42:48;;;;;;;719.75;643.35;;;;;;;;;;4913638;29;20439;-71
2023/09/28 03:45:20;;;;;;;710.17;635.70;;;;;;;;;;4921140;29;20824;-71
2023/09/28 03:47:48;;;;;;;720.80;643.08;;;;;;;;;;4921467;29;20803;-71
2023/09/28 03:50:15;;;;;;;715.67;638.25;;;;;;;;;;4926662;29;20475;-71
2023/09/28 03:52:46;;;;;;;715.38;636.53;;;;;;;;;;4925637;29;21099;-71
2023/09/28 03:55:14;;;;;;;724.05;644.30;;;;;;;;;;4925539;29;20538;-71
2023/09/28 03:57:44;;;;;;;734.10;641.17;;;;;;;;;;4929604;29;20546;-71
2023/09/28 04:00:13;;;;;;;724.63;637.15;;;;;;;;;;4931965;29;20436;-71
2023/09/28 04:02:44;;;;;;;726.00;640.53;;;;;;;;;;4931431;29;20443;-71
2023/09/28 04:05:15;;;;;;;738.67;655.30;;;;;;;;;;4911780;29;20471;-71
2023/09/28 04:07:43;;;;;;;738.75;648.80;;;;;;;;;;4929765;29;20443;-71
2023/09/28 04:10:11;;;;;;;748.63;658.27;;;;;;;;;;4924893;29;20435;-71
2023/09/28 04:12:40;;;;;;;741.45;643.75;;;;;;;;;;4927433;29;20447;-71
2023/09/28 04:15:08;;;;;;;737.80;644.40;;;;;;;;;;4918429;29;20443;-72
2023/09/28 04:17:36;;;;;;;740.60;654.55;;;;;;;;;;4930225;29;20435;-71
2023/09/28 04:20:09;;;;;;;741.72;656.58;;;;;;;;;;4925394;29;20902;-72
2023/09/28 04:22:36;;;;;;;698.85;624.58;;;;;;;;;;4924555;29;20435;-71
2023/09/28 04:25:04;;;;;;;702.30;626.35;;;;;;;;;;4929099;29;20439;-71
2023/09/28 04:27:34;;;;;;;737.47;639.95;;;;;;;;;;4925397;29;20435;-72
2023/09/28 04:30:01;;;;;;;732.90;634.55;;;;;;;;;;4922896;29;20866;-71
2023/09/28 04:32:28;;;;;;;731.63;641.65;;;;;;;;;;4910104;29;20439;-71
2023/09/28 04:34:56;;;;;;;728.40;631.13;;;;;;;;;;4928871;29;20460;-72
2023/09/28 04:37:25;;;;;;;725.10;643.05;;;;;;;;;;4923132;29;20531;-72
2023/09/28 04:39:53;;;;;;;727.60;639.50;;;;;;;;;;4920966;29;20535;-72
2023/09/28 04:42:23;;;;;;;731.38;650.85;;;;;;;;;;4909821;29;20435;-71
2023/09/28 04:44:50;;;;;;;731.50;634.47;;;;;;;;;;4922464;29;20431;-72
2023/09/28 04:47:17;;;;;;;726.33;622.53;;;;;;;;;;4926293;29;20465;-72
2023/09/28 04:49:45;;;;;;;720.63;617.92;;;;;;;;;;4925026;29;20541;-72
2023/09/28 04:52:13;;;;;;;724.35;620.97;;;;;;;;;;4909928;29;20490;-72
2023/09/28 04:54:41;;;;;;;715.25;613.00;;;;;;;;;;4925769;29;20447;-72
2023/09/28 04:57:08;;;;;;;715.45;614.80;;;;;;;;;;4922236;29;20459;-72
2023/09/28 04:59:40;;;;;;;713.55;612.42;;;;;;;;;;4925161;29;20510;-72
2023/09/28 05:02:08;;;;;;;715.30;605.30;;;;;;;;;;4923330;29;20471;-72
2023/09/28 05:04:35;;;;;;;708.15;600.88;;;;;;;;;;4907987;29;20524;-72
2023/09/28 05:07:05;;;;;;;715.17;619.97;;;;;;;;;;4930712;29;20447;-71
2023/09/28 05:09:35;;;;;;;654.00;584.72;;;;;;;;;;4924316;29;20451;-70
2023/09/28 05:12:03;;;;;;;665.58;593.28;;;;;;;;;;4925782;29;20443;-70
2023/09/28 05:14:31;;;;;;;676.63;601.95;;;;;;;;;;4914170;29;20467;-70
2023/09/28 05:16:59;;;;;;;673.85;599.35;;;;;;;;;;4928519;29;20968;-70
2023/09/28 05:19:27;;;;;;;674.60;600.53;;;;;;;;;;4925609;29;20513;-70
2023/09/28 05:21:54;;;;;;;682.72;608.20;;;;;;;;;;4927359;29;20447;-70
2023/09/28 05:24:21;;;;;;;676.95;597.72;;;;;;;;;;4920547;29;21045;-69
2023/09/28 05:26:49;;;;;;;667.45;590.30;;;;;;;;;;4927424;29;20439;-70
2023/09/28 05:29:17;;;;;;;572.15;520.85;;;;;;;;;;4919826;29;20513;-70
2023/09/28 05:31:46;;;;;;;563.07;511.87;;;;;;;;;;4913504;29;20528;-71
2023/09/28 05:34:14;;;;;;;612.15;551.85;;;;;;;;;;4918558;29;20541;-70
2023/09/28 05:36:44;;;;;;;619.72;558.70;;;;;;;;;;4926442;29;20439;-70
2023/09/28 05:39:12;;;;;;;641.05;574.47;;;;;;;;;;4921387;29;20446;-70
2023/09/28 05:41:39;;;;;;;660.43;596.73;;;;;;;;;;4927511;29;21052;-70
2023/09/28 05:44:07;;;;;;;655.08;592.67;;;;;;;;;;4916894;29;20528;-70
2023/09/28 05:46:39;;;;;;;675.15;610.92;;;;;;;;;;4928713;29;20470;-70
2023/09/28 05:49:13;;;;;;;664.30;601.90;;;;;;;;;;4923498;29;20944;-70
2023/09/28 05:51:40;;;;;;;677.83;612.95;;;;;;;;;;4920395;29;20435;-70
2023/09/28 05:54:07;;;;;;;680.75;614.42;;;;;;;;;;4926458;29;20447;-69
2023/09/28 05:56:34;;;;;;;660.80;596.63;;;;;;;;;;4927525;29;20450;-70
2023/09/28 05:59:01;;;;;;;662.88;598.78;;;;;;;;;;4924867;29;20578;-70
2023/09/28 06:01:30;;;;;;;685.97;613.40;;;;;;;;;;4918026;29;20531;-70
2023/09/28 06:03:57;;;;;;;636.92;575.72;;;;;;;;;;4921264;29;20514;-70
2023/09/28 06:06:32;;;;;;;465.52;428.00;;;;;;;;;;4917875;29;20609;-70
2023/09/28 06:08:59;;;;;;;604.05;550.10;;;;;;;;;;4922870;29;21027;-70
2023/09/28 06:11:27;;;;;;;617.70;561.65;;;;;;;;;;4902817;29;20490;-69
2023/09/28 06:13:55;;;;;;;613.70;558.67;;;;;;;;;;4903372;29;20528;-70
2023/09/28 06:16:37;;;;;;;669.83;602.20;;;;;;;;;;4908856;29;20534;-70
2023/09/28 06:19:05;;;;;;;626.47;566.20;;;;;;;;;;4921772;29;20476;-70
2023/09/28 06:21:32;;;;;;;663.75;597.90;;;;;;;;;;4923016;29;20498;-71
2023/09/28 06:24:00;;;;;;;660.70;597.45;;;;;;;;;;4921924;29;20504;-70
2023/09/28 06:26:27;;;;;;;684.97;618.33;;;;;;;;;;4923500;29;20450;-71
2023/09/28 06:29:00;;;;;;;788.88;708.03;;;;;;;;;;4913762;28;20537;-70
2023/09/28 06:31:28;;;;;;;781.25;702.20;;;;;;;;;;4917611;29;20522;-71
2023/09/28 06:33:55;;;;;;;844.00;750.58;;;;;;;;;;4914542;29;20519;-71
2023/09/28 06:36:24;;;;;;;917.38;726.47;;;;;;;;;;4928307;29;20448;-70
2023/09/28 06:39:15;;;;;;;931.55;713.13;;;;;;;;;;4904167;29;20615;-71
2023/09/28 06:41:42;;;;;;;941.38;717.92;;;;;;;;;;4922217;29;20449;-71
2023/09/28 06:44:09;;;;;;;942.00;741.85;;;;;;;;;;4920284;29;20587;-71
2023/09/28 06:46:37;;;;;;;905.15;756.42;;;;;;;;;;4914273;29;20449;-71
2023/09/28 06:49:08;;;;;;;945.22;772.28;;;;;;;;;;4923543;29;20431;-71
2023/09/28 06:51:37;;;;;;;866.97;751.08;;;;;;;;;;4925854;29;20447;-71
2023/09/28 06:54:04;;;;;;;901.50;754.95;;;;;;;;;;4918318;29;20447;-71
2023/09/28 06:56:34;;;;;;;920.15;757.08;;;;;;;;;;4922780;29;20458;-71
2023/09/28 06:59:04;;;;;;;940.30;763.70;;;;;;;;;;4922804;29;21029;-71
2023/09/28 07:01:33;;;;;;;966.40;760.37;;;;;;;;;;4926732;29;20524;-71
2023/09/28 07:04:00;;;;;;;965.08;762.22;;;;;;;;;;4924513;29;20443;-71
2023/09/28 07:06:28;;;;;;;907.90;766.40;;;;;;;;;;4918023;29;20469;-71
2023/09/28 07:08:55;;;;;;;881.97;777.30;;;;;;;;;;4924695;29;21012;-71
2023/09/28 07:11:23;;;;;;;961.85;784.78;;;;;;;;;;4921339;29;20445;-69
2023/09/28 07:13:51;;;;;;;963.13;780.90;;;;;;;;;;4921082;29;20528;-70
2023/09/28 07:16:18;;;;;;;960.77;794.67;;;;;;;;;;4927461;29;20435;-70
2023/09/28 07:18:45;;;;;;;950.23;790.43;;;;;;;;;;4920855;29;20455;-70
2023/09/28 07:21:12;;;;;;;883.25;786.22;;;;;;;;;;4901475;29;20433;-70
2023/09/28 07:23:41;;;;;;;932.83;793.83;;;;;;;;;;4918095;29;20443;-70
2023/09/28 07:26:14;;;;;;;918.25;794.28;;;;;;;;;;4923617;29;21065;-70
2023/09/28 07:28:41;;;;;;;928.90;794.17;;;;;;;;;;4921762;29;20492;-70
2023/09/28 07:31:08;;;;;;;930.53;794.95;;;;;;;;;;4923059;29;20443;-70
2023/09/28 07:33:45;;;;;;;966.67;795.20;;;;;;;;;;4931578;29;20446;-70
2023/09/28 07:36:12;;;;;;;893.30;793.47;;;;;;;;;;4922379;29;20436;-70
2023/09/28 07:38:43;;;;;;;911.47;794.33;;;;;;;;;;4921443;29;20443;-69
2023/09/28 07:41:13;;;;;;;891.60;793.35;;;;;;;;;;4929470;29;20434;-70
2023/09/28 07:43:40;;;;;;;936.55;797.85;;;;;;;;;;4920869;29;20439;-70
2023/09/28 07:46:07;;;;;;;954.17;799.85;;;;;;;;;;4930840;29;20435;-70
2023/09/28 07:48:35;;;;;;;964.28;800.60;;;;;;;;;;4932231;29;20526;-70
2023/09/28 07:51:02;;;;;;;996.87;826.07;;;;;;;;;;4930803;29;20454;-70
2023/09/28 07:53:29;;;;;;;998.50;827.15;;;;;;;;;;4927146;29;20498;-70
2023/09/28 07:55:56;;;;;;;913.88;813.33;;;;;;;;;;4917558;29;21195;-69
2023/09/28 07:58:27;;;;;;;899.78;795.53;;;;;;;;;;4923241;29;20557;-71
2023/09/28 08:00:57;;;;;;;980.45;791.15;;;;;;;;;;4923021;29;20435;-69
2023/09/28 08:03:24;;;;;;;959.72;769.92;;;;;;;;;;4928362;29;20442;-69
2023/09/28 08:05:54;;;;;;;973.83;782.60;;;;;;;;;;4924515;29;20688;-69
2023/09/28 08:08:23;;;;;;;970.58;774.35;;;;;;;;;;4927215;29;20449;-70
2023/09/28 08:10:50;;;;;;;967.55;769.65;;;;;;;;;;4927545;29;20437;-69
2023/09/28 08:13:18;;;;;;;961.93;766.73;;;;;;;;;;4907066;29;21324;-70
2023/09/28 08:15:48;;;;;;;958.83;766.33;;;;;;;;;;4924792;29;20449;-70
2023/09/28 08:18:15;;;;;;;885.83;772.20;;;;;;;;;;4924614;29;20475;-69
2023/09/28 08:20:43;;;;;;;963.60;776.25;;;;;;;;;;4923277;29;20497;-69
2023/09/28 08:23:26;;;;;;;973.07;776.27;;;;;;;;;;4926014;29;20443;-70
2023/09/28 08:25:53;;;;;;;971.38;773.28;;;;;;;;;;4922822;29;20522;-71
2023/09/28 08:28:24;;;;;;;979.70;783.70;;;;;;;;;;4929130;29;20450;-70
2023/09/28 08:30:54;;;;;;;983.10;792.37;;;;;;;;;;4928414;29;20919;-70
2023/09/28 08:33:24;;;;;;;885.60;783.13;;;;;;;;;;4926760;29;20526;-70
2023/09/28 08:35:52;;;;;;;889.75;786.35;;;;;;;;;;4931157;29;20523;-71
2023/09/28 08:38:20;;;;;;;952.50;786.70;;;;;;;;;;4925398;29;20775;-70
2023/09/28 08:40:49;;;;;;;977.00;778.53;;;;;;;;;;4923966;29;20572;-71
2023/09/28 08:43:17;;;;;;;976.13;786.47;;;;;;;;;;4929316;29;20435;-71
2023/09/28 08:45:45;;;;;;;977.35;784.35;;;;;;;;;;4931002;29;20515;-71
2023/09/28 08:48:17;;;;;;;986.00;801.22;;;;;;;;;;4923539;29;20454;-71
2023/09/28 08:50:45;;;;;;;995.22;806.97;;;;;;;;;;4919283;29;20441;-71
2023/09/28 08:53:23;;;;;;;990.92;804.53;;;;;;;;;;4927668;29;20439;-71
2023/09/28 08:55:53;;;;;;;989.00;812.28;;;;;;;;;;4921315;29;20445;-71
2023/09/28 08:58:24;;;;;;;1000.63;821.53;;;;;;;;;;4931249;29;21077;-72
2023/09/28 09:00:51;;;;;;;1001.08;820.92;;;;;;;;;;4913908;29;20447;-71
2023/09/28 09:03:21;;;;;;;995.75;820.20;;;;;;;;;;4930309;29;20447;-71
2023/09/28 09:05:50;;;;;;;992.00;817.20;;;;;;;;;;4919133;29;20832;-71
2023/09/28 09:08:17;;;;;;;1000.47;828.05;;;;;;;;;;4930480;29;20514;-70
2023/09/28 09:10:47;;;;;;;999.65;832.75;;;;;;;;;;4926600;29;20462;-71
2023/09/28 09:13:19;;;;;;;999.63;830.63;;;;;;;;;;4911178;29;20454;-71
2023/09/28 09:15:50;;;;;;;1002.78;837.33;;;;;;;;;;4925033;29;20509;-71
2023/09/28 09:18:19;;;;;;;998.70;835.42;;;;;;;;;;4930355;29;20523;-71
2023/09/28 09:20:47;;;;;;;1003.35;841.47;;;;;;;;;;4931585;29;20439;-71
2023/09/28 09:23:19;;;;;;;1003.17;845.42;;;;;;;;;;4927534;29;20455;-72
2023/09/28 09:25:56;;;;;;;1003.30;848.28;;;;;;;;;;4919403;29;20448;-72
2023/09/28 09:28:32;;;;;;;1000.83;838.55;;;;;;;;;;4926497;29;20471;-71
2023/09/28 09:31:01;;;;;;;997.90;831.75;;;;;;;;;;4926628;29;20454;-72
2023/09/28 09:33:28;;;;;;;997.90;833.28;;;;;;;;;;4922291;29;20445;-72
2023/09/28 09:35:56;;;;;;;999.08;837.90;;;;;;;;;;4929639;29;20439;-72
2023/09/28 09:38:32;;;;;;;991.20;834.83;;;;;;;;;;4921977;29;20445;-72
2023/09/28 09:41:00;;;;;;;996.70;833.83;;;;;;;;;;4934018;29;20440;-72
2023/09/28 09:43:32;;;;;;;1005.23;842.93;;;;;;;;;;4930127;29;20472;-72
2023/09/28 09:46:05;;;;;;;1009.00;852.15;;;;;;;;;;4913178;29;20445;-72
2023/09/28 09:48:37;;;;;;;1000.35;850.15;;;;;;;;;;4930557;29;20450;-72
2023/09/28 09:51:12;;;;;;;1007.00;861.40;;;;;;;;;;4918419;29;20523;-72
2023/09/28 09:53:40;;;;;;;1016.80;865.17;;;;;;;;;;4907239;29;20494;-73
2023/09/28 09:56:09;;;;;;;1017.92;876.10;;;;;;;;;;4924762;29;20467;-72
2023/09/28 09:58:48;;;;;;;1016.40;874.88;;;;;;;;;;4926016;29;20867;-72
2023/09/28 10:01:16;;;;;;;1019.70;876.35;;;;;;;;;;4910715;29;20441;-73
2023/09/28 10:03:48;;;;;;;1023.42;882.33;;;;;;;;;;4915468;29;20510;-72
2023/09/28 10:06:16;;;;;;;1022.58;880.70;;;;;;;;;;4925518;29;20462;-71
2023/09/28 10:08:45;;;;;;;1013.78;875.60;;;;;;;;;;4910916;29;20992;-72
2023/09/28 10:11:13;;;;;;;1004.22;867.22;;;;;;;;;;4927805;29;20471;-72
2023/09/28 10:13:43;;;;;;;1004.08;869.55;;;;;;;;;;4924296;29;20461;-72
2023/09/28 10:16:15;;;;;;;1004.38;873.00;;;;;;;;;;4930697;29;20443;-72
2023/09/28 10:18:43;;;;;;;1003.50;882.42;;;;;;;;;;4916372;29;20475;-72
2023/09/28 10:21:13;;;;;;;1004.92;874.85;;;;;;;;;;4923861;29;20817;-73
2023/09/28 10:23:42;;;;;;;1005.78;881.38;;;;;;;;;;4928444;29;20446;-72
2023/09/28 10:26:13;;;;;;;1006.05;875.00;;;;;;;;;;4933204;29;20435;-73
2023/09/28 10:28:59;;;;;;;1012.45;879.53;;;;;;;;;;4933201;29;20498;-73
2023/09/28 10:31:28;;;;;;;1013.50;881.40;;;;;;;;;;4927693;29;20504;-73
2023/09/28 10:34:22;;;;;;;1023.57;897.17;;;;;;;;;;4927363;29;20538;-73
2023/09/28 10:37:13;;;;;;;1014.78;886.20;;;;;;;;;;4929876;29;20451;-73
2023/09/28 10:39:43;;;;;;;1018.90;888.35;;;;;;;;;;4932603;29;20429;-73
2023/09/28 10:42:15;;;;;;;1024.32;895.45;;;;;;;;;;4934146;29;20502;-74
2023/09/28 10:44:48;;;;;;;1018.42;890.92;;;;;;;;;;4929163;29;20490;-72
2023/09/28 10:47:17;;;;;;;1027.40;899.50;;;;;;;;;;4933615;29;20459;-74
2023/09/28 10:49:45;;;;;;;1032.32;904.45;;;;;;;;;;4928621;29;20456;-73
2023/09/28 10:52:16;;;;;;;1026.15;896.10;;;;;;;;;;4918333;29;21026;-73
2023/09/28 10:54:44;;;;;;;1021.35;888.50;;;;;;;;;;4929617;29;20520;-74
2023/09/28 10:57:12;;;;;;;1021.72;888.50;;;;;;;;;;4931043;29;20435;-73
2023/09/28 10:59:42;;;;;;;1018.42;882.75;;;;;;;;;;4928835;29;20439;-73
2023/09/28 11:02:10;;;;;;;1017.38;876.83;;;;;;;;;;4930093;29;20443;-73
2023/09/28 11:04:37;;;;;;;1010.63;874.33;;;;;;;;;;4927651;29;20459;-72
2023/09/28 11:07:18;;;;;;;1005.57;875.87;;;;;;;;;;4931890;29;20444;-73
2023/09/28 11:09:45;;;;;;;1006.30;876.13;;;;;;;;;;4932587;29;20439;-73
2023/09/28 11:12:13;;;;;;;992.50;866.63;;;;;;;;;;4929498;29;20441;-71
2023/09/28 11:14:44;;;;;;;990.03;865.72;;;;;;;;;;4932459;29;20916;-73
2023/09/28 11:17:11;;;;;;;984.27;865.17;;;;;;;;;;4925853;29;20496;-72
2023/09/28 11:19:38;;;;;;;989.10;869.42;;;;;;;;;;4932275;29;20893;-73
2023/09/28 11:22:05;;;;;;;987.07;861.53;;;;;;;;;;4925275;29;20508;-72
2023/09/28 11:24:33;;;;;;;981.95;855.90;;;;;;;;;;4925334;29;20441;-73
2023/09/28 11:27:03;;;;;;;980.67;854.35;;;;;;;;;;4932709;29;20534;-73
2023/09/28 11:29:31;;;;;;;975.17;850.17;;;;;;;;;;4929033;29;20917;-73
2023/09/28 11:32:02;;;;;;;987.10;871.65;;;;;;;;;;4928632;29;20443;-72
2023/09/28 11:34:30;;;;;;;983.85;852.70;;;;;;;;;;4926034;29;20448;-73
2023/09/28 11:36:58;;;;;;;991.20;862.15;;;;;;;;;;4930116;29;20443;-74
2023/09/28 11:39:26;;;;;;;992.90;863.92;;;;;;;;;;4913260;29;20462;-72
2023/09/28 11:41:57;;;;;;;1000.60;864.33;;;;;;;;;;4932541;29;20670;-73
2023/09/28 11:44:26;;;;;;;999.60;872.00;;;;;;;;;;4931682;29;20443;-72
2023/09/28 11:46:53;;;;;;;998.93;869.77;;;;;;;;;;4925430;29;20435;-72
2023/09/28 11:49:24;;;;;;;1014.72;902.85;;;;;;;;;;4929879;29;20534;-73
2023/09/28 11:51:53;;;;;;;1002.47;877.47;;;;;;;;;;4901882;29;20938;-72
2023/09/28 11:54:21;;;;;;;1009.83;897.55;;;;;;;;;;4923880;29;20470;-74
2023/09/28 11:56:52;;;;;;;1007.15;895.53;;;;;;;;;;4914150;29;20444;-71
2023/09/28 11:59:22;;;;;;;1002.40;878.65;;;;;;;;;;4922689;29;20532;-72
2023/09/28 12:01:53;;;;;;;1003.58;879.63;;;;;;;;;;4925550;29;20439;-73
2023/09/28 12:04:20;;;;;;;998.30;874.50;;;;;;;;;;4924139;29;20447;-73
2023/09/28 12:06:48;;;;;;;1005.88;888.40;;;;;;;;;;4924180;29;20934;-72
2023/09/28 12:09:18;;;;;;;1000.40;874.88;;;;;;;;;;4931266;29;20446;-72
2023/09/28 12:11:46;;;;;;;1001.05;887.95;;;;;;;;;;4932174;29;20522;-72
2023/09/28 12:14:16;;;;;;;1002.08;887.75;;;;;;;;;;4932882;29;21007;-72
2023/09/28 12:16:46;;;;;;;998.92;882.88;;;;;;;;;;4929063;29;20445;-71
2023/09/28 12:19:17;;;;;;;1002.00;889.33;;;;;;;;;;4927178;29;20825;-73
2023/09/28 12:21:46;;;;;;;1014.53;903.13;;;;;;;;;;4927272;29;20443;-73
2023/09/28 12:24:13;;;;;;;997.10;882.17;;;;;;;;;;4922823;29;20529;-73
2023/09/28 12:26:40;;;;;;;999.13;881.17;;;;;;;;;;4930688;29;20443;-72
2023/09/28 12:29:07;;;;;;;1014.73;902.20;;;;;;;;;;4923876;29;20988;-73
2023/09/28 12:31:37;;;;;;;1013.92;897.00;;;;;;;;;;4922190;29;20441;-73
2023/09/28 12:34:05;;;;;;;1075.47;959.97;;;;;;;;;;4920629;29;20545;-73
2023/09/28 12:36:32;;;;;;;1045.78;930.97;;;;;;;;;;4925787;29;20771;-74
2023/09/28 12:39:00;;;;;;;1041.60;927.30;;;;;;;;;;4926359;29;20443;-73
2023/09/28 12:41:27;;;;;;;1030.07;916.13;;;;;;;;;;4930865;29;20519;-73
2023/09/28 12:43:54;;;;;;;1016.50;900.45;;;;;;;;;;4928958;29;20446;-73
2023/09/28 12:46:22;;;;;;;1034.85;922.08;;;;;;;;;;4931388;29;20443;-73
2023/09/28 12:48:52;;;;;;;999.63;880.70;;;;;;;;;;4933594;29;20482;-73
2023/09/28 12:51:19;;;;;;;1000.42;881.80;;;;;;;;;;4925177;29;20435;-72
2023/09/28 12:53:50;;;;;;;999.93;881.10;;;;;;;;;;4921622;29;20449;-73
2023/09/28 12:56:17;;;;;;;998.17;881.47;;;;;;;;;;4931151;29;20446;-72
2023/09/28 12:58:48;;;;;;;996.70;873.85;;;;;;;;;;4926423;29;20968;-74
2023/09/28 13:01:15;;;;;;;998.13;876.45;;;;;;;;;;4924326;29;20476;-73
2023/09/28 13:03:42;;;;;;;994.55;867.58;;;;;;;;;;4927747;29;20435;-73
2023/09/28 13:06:10;;;;;;;990.70;860.63;;;;;;;;;;4926115;29;20440;-73
2023/09/28 13:08:37;;;;;;;990.08;860.13;;;;;;;;;;4925783;29;20445;-73
2023/09/28 13:11:06;;;;;;;1006.40;880.78;;;;;;;;;;4910809;29;20444;-73
2023/09/28 13:13:37;;;;;;;1004.55;881.65;;;;;;;;;;4933595;29;20458;-73
2023/09/28 13:16:05;;;;;;;1006.05;883.78;;;;;;;;;;4932929;29;20574;-73
2023/09/28 13:18:35;;;;;;;1002.17;881.13;;;;;;;;;;4925726;29;20781;-73
2023/09/28 13:21:02;;;;;;;993.22;873.05;;;;;;;;;;4926803;29;20443;-73
2023/09/28 13:23:32;;;;;;;993.03;875.85;;;;;;;;;;4922673;29;20436;-74
2023/09/28 13:26:05;;;;;;;998.28;884.38;;;;;;;;;;4921069;29;20435;-73
2023/09/28 13:28:35;;;;;;;997.10;886.05;;;;;;;;;;4926235;29;20806;-73
2023/09/28 13:31:05;;;;;;;1002.13;891.65;;;;;;;;;;4930299;29;20511;-73
2023/09/28 13:33:37;;;;;;;993.40;875.92;;;;;;;;;;4929131;29;20510;-73
2023/09/28 13:36:06;;;;;;;991.72;870.22;;;;;;;;;;4914872;29;20467;-73
2023/09/28 13:38:33;;;;;;;993.60;869.78;;;;;;;;;;4927619;29;20467;-73
2023/09/28 13:41:01;;;;;;;989.63;859.55;;;;;;;;;;4926654;29;20561;-73
2023/09/28 13:43:41;;;;;;;991.75;874.78;;;;;;;;;;4923865;29;20470;-73
2023/09/28 13:46:10;;;;;;;983.22;854.08;;;;;;;;;;4916883;29;20450;-72
2023/09/28 13:48:37;;;;;;;992.78;862.80;;;;;;;;;;4925244;29;20449;-72
2023/09/28 13:51:05;;;;;;;994.03;874.67;;;;;;;;;;4927679;29;20527;-73
2023/09/28 13:53:34;;;;;;;997.65;883.85;;;;;;;;;;4922636;29;20798;-72
2023/09/28 13:56:05;;;;;;;998.00;885.63;;;;;;;;;;4926199;29;20886;-73
2023/09/28 13:58:35;;;;;;;988.17;862.85;;;;;;;;;;4923835;29;20448;-73
2023/09/28 14:01:10;;;;;;;991.55;864.15;;;;;;;;;;4925174;29;20500;-73